This is the latest recevied weather packets stored in our database for station/object KE0TNI-13. If no packets are shown the sender has not sent any weather packets the latest 10 day(s).
| Time | Temp. | Humidity | Pressure | Rain* | Wind** | Luminosity | Snow |
|---|---|---|---|---|---|---|---|
| 1777872878 | 5.56° C | 46% | 1018.2 hPa | 0 mm | - | 0 W/m² | - |
| 1777872577 | 5.56° C | 50% | 1018.2 hPa | 0 mm | - | 0 W/m² | - |
| 1777872274 | 5.56° C | 47% | 1018 hPa | 0 mm | - | 0 W/m² | - |
| 1777871972 | 5.56° C | 49% | 1018.3 hPa | 0 mm | - | 0 W/m² | - |
| 1777871667 | 5.56° C | 49% | 1018.3 hPa | 0 mm | - | 0 W/m² | - |
| 1777871364 | 5.56° C | 49% | 1018.3 hPa | 0 mm | - | 0 W/m² | - |
| 1777871061 | 5.56° C | 48% | 1018.4 hPa | 0 mm | - | 0 W/m² | - |
| 1777870758 | 5° C | 50% | 1018.8 hPa | 0 mm | - | 0 W/m² | - |
| 1777870454 | 5.56° C | 51% | 1018.4 hPa | 0 mm | - | 0 W/m² | - |
| 1777870150 | 5.56° C | 50% | 1018.7 hPa | 0 mm | - | 0 W/m² | - |
| 1777869848 | 5.56° C | 48% | 1018.8 hPa | 0 mm | - | 0 W/m² | - |
| 1777869545 | 5.56° C | 48% | 1019.1 hPa | 0 mm | - | 0 W/m² | - |
| 1777869242 | 5.56° C | 49% | 1018.8 hPa | 0 mm | - | 0 W/m² | - |
| 1777868940 | 5.56° C | 49% | 1018.7 hPa | 0 mm | - | 0 W/m² | - |
| 1777868635 | 5.56° C | 49% | 1018.9 hPa | 0 mm | - | 0 W/m² | - |
| 1777868332 | 5.56° C | 49% | 1019.1 hPa | 0 mm | - | 0 W/m² | - |
| 1777868028 | 5.56° C | 50% | 1018.8 hPa | 0 mm | - | 0 W/m² | - |
| 1777867724 | 5.56° C | 50% | 1018.8 hPa | 0 mm | - | 0 W/m² | - |
| 1777867118 | 5.56° C | 53% | 1018.9 hPa | 0 mm | - | 0 W/m² | - |
| 1777866816 | 5.56° C | 52% | 1019.3 hPa | 0 mm | - | 0 W/m² | - |
| 1777864999 | 6.11° C | 51% | 1018.9 hPa | 0 mm | - | 0 W/m² | - |
| 1777864089 | 6.11° C | 50% | 1018.9 hPa | 0 mm | - | 0 W/m² | - |
| 1777846818 | 13.89° C | 24% | 1018.3 hPa | 0 mm | - | 232 W/m² | - |
| 1777846516 | 13.89° C | 24% | 1018.5 hPa | 0 mm | - | 180 W/m² | - |
| 1777843487 | 15° C | 19% | 1019.2 hPa | 0 mm | - | 235 W/m² | - |
* Rain latest hour (hover to see other rain measurements)
** Current wind speed in m/s (hover to see current wind gust speed)